Latest Weather Observations for Ocean Reef

IDW60801

Issued at 11:33 pm WST Tuesday 26 July 2016 (issued every 30 minutes, with the page automatically refreshed every 10 minutes)

About weather observations | Map of weather stations | Latest weather observations for WA | Other Formats
Station Details ID: 009214 Name: OCEAN REEF Lat: -31.76 Lon: 115.73 Height: 10.0 m
Data from the previous 72 hours. | See also: Recent months at Ocean Reef
Date/Time
WST
Temp
°C
App
Temp
°C
Dew
Point
°C
Rel
Hum
%
Delta-T
°C
Wind Press
QNH
hPa
Press
MSL
hPa
Rain since
9am
mm
Dir  Spd
km/h
Gust
km/h
Spd
kts
Gust
kts
26/11:30pm - - - - - E 13 15 7 8 - - -
26/11:00pm - - - - - E 15 19 8 10 - - -
26/10:30pm - - - - - ESE 17 19 9 10 - - -
26/10:00pm - - - - - ESE 13 17 7 9 - - -
26/09:30pm - - - - - ESE 15 19 8 10 - - -
26/09:00pm - - - - - SE 15 17 8 9 - - -
26/08:30pm - - - - - SE 15 17 8 9 - - -
26/08:00pm - - - - - SSE 13 17 7 9 - - -
26/07:30pm - - - - - SSE 13 17 7 9 - - -
26/07:00pm - - - - - SSE 13 15 7 8 - - -
26/06:30pm - - - - - S 15 19 8 10 - - -
26/06:00pm - - - - - S 17 20 9 11 - - -
26/05:30pm - - - - - S 15 19 8 10 - - -
26/05:00pm - - - - - S 17 19 9 10 - - -
26/04:30pm - - - - - S 17 20 9 11 - - -
26/04:00pm - - - - - SSW 15 17 8 9 - - -
26/03:30pm - - - - - SSW 13 15 7 8 - - -
26/03:00pm - - - - - SW 11 13 6 7 - - -
26/02:30pm - - - - - WSW 13 15 7 8 - - -
26/02:00pm - - - - - WSW 13 15 7 8 - - -
26/01:30pm - - - - - WSW 13 13 7 7 - - -
26/01:00pm - - - - - WSW 11 13 6 7 - - -
26/12:30pm - - - - - WSW 11 13 6 7 - - -
26/12:00pm - - - - - W 9 13 5 7 - - -
26/11:30am - - - - - SSW 6 11 3 6 - - -
26/11:00am - - - - - E 9 13 5 7 - - -
26/10:30am - - - - - ENE 11 15 6 8 - - -
26/10:00am - - - - - ENE 13 19 7 10 - - -
26/09:30am - - - - - ENE 13 19 7 10 - - -
26/09:00am - - - - - ENE 17 22 9 12 - - -
26/08:30am - - - - - ENE 17 20 9 11 - - -
26/08:00am - - - - - ENE 17 20 9 11 - - -
26/07:30am - - - - - ENE 17 20 9 11 - - -
26/07:00am - - - - - ENE 20 24 11 13 - - -
26/06:30am - - - - - ENE 19 20 10 11 - - -
26/06:00am - - - - - ENE 20 24 11 13 - - -
26/05:30am - - - - - ENE 19 20 10 11 - - -
26/05:00am - - - - - ENE 20 24 11 13 - - -
26/04:30am - - - - - ENE 17 19 9 10 - - -
26/04:00am - - - - - ENE 17 20 9 11 - - -
26/03:30am - - - - - ENE 19 22 10 12 - - -
26/03:00am - - - - - ENE 20 22 11 12 - - -
26/02:30am - - - - - ENE 17 20 9 11 - - -
26/02:00am - - - - - ENE 19 24 10 13 - - -
26/01:30am - - - - - ENE 20 22 11 12 - - -
26/01:00am - - - - - ENE 19 20 10 11 - - -
26/12:30am - - - - - ENE 17 20 9 11 - - -
26/12:00am - - - - - ENE 15 19 8 10 - - -
 
Date/Time
WST
Temp
°C
App
Temp
°C
Dew
Point
°C
Rel
Hum
%
Delta-T
°C
Wind Press
QNH
hPa
Press
MSL
hPa
Rain since
9am
mm
Dir  Spd
km/h
Gust
km/h
Spd
kts
Gust
kts
25/11:30pm - - - - - ENE 15 19 8 10 - - -
25/11:00pm - - - - - ENE 17 19 9 10 - - -
25/10:30pm - - - - - ENE 15 17 8 9 - - -
25/10:00pm - - - - - ENE 15 17 8 9 - - -
25/09:30pm - - - - - ENE 15 17 8 9 - - -
25/09:00pm - - - - - ESE 11 13 6 7 - - -
25/08:30pm - - - - - E 11 11 6 6 - - -
25/08:00pm - - - - - SE 11 13 6 7 - - -
25/07:30pm - - - - - SE 13 13 7 7 - - -
25/07:00pm - - - - - SSE 13 17 7 9 - - -
25/06:30pm - - - - - SSE 17 19 9 10 - - -
25/06:00pm - - - - - S 19 26 10 14 - - -
25/05:30pm - - - - - S 22 28 12 15 - - -
25/05:00pm - - - - - S 19 26 10 14 - - -
25/04:30pm - - - - - S 19 22 10 12 - - -
25/04:00pm - - - - - S 20 26 11 14 - - -
25/03:30pm - - - - - SSW 20 26 11 14 - - -
25/03:00pm - - - - - SSW 22 28 12 15 - - -
25/02:30pm - - - - - SSW 22 30 12 16 - - -
25/02:00pm - - - - - SSW 22 28 12 15 - - -
25/01:30pm - - - - - SSW 15 22 8 12 - - -
25/01:00pm - - - - - SSW 19 24 10 13 - - -
25/12:30pm - - - - - S 20 28 11 15 - - -
25/12:00pm - - - - - SSW 17 19 9 10 - - -
25/11:30am - - - - - SSE 15 20 8 11 - - -
25/11:00am - - - - - SE 15 26 8 14 - - -
25/10:30am - - - - - E 15 20 8 11 - - -
25/10:00am - - - - - ENE 15 20 8 11 - - -
25/09:30am - - - - - E 15 22 8 12 - - -
25/09:00am - - - - - ENE 15 22 8 12 - - -
25/08:30am - - - - - ENE 17 24 9 13 - - -
25/08:00am - - - - - ENE 17 26 9 14 - - -
25/07:30am - - - - - ENE 17 26 9 14 - - -
25/07:00am - - - - - E 17 22 9 12 - - -
25/06:30am - - - - - ENE 17 20 9 11 - - -
25/06:00am - - - - - SE 9 11 5 6 - - -
25/05:30am - - - - - ENE 7 11 4 6 - - -
25/05:00am - - - - - E 7 11 4 6 - - -
25/04:30am - - - - - ENE 11 17 6 9 - - -
25/04:00am - - - - - ENE 15 17 8 9 - - -
25/03:30am - - - - - ENE 15 17 8 9 - - -
25/03:00am - - - - - ENE 15 17 8 9 - - -
25/02:30am - - - - - ENE 17 19 9 10 - - -
25/02:00am - - - - - ENE 13 17 7 9 - - -
25/01:30am - - - - - ENE 13 17 7 9 - - -
25/01:00am - - - - - ENE 15 19 8 10 - - -
25/12:30am - - - - - ENE 15 19 8 10 - - -
25/12:00am - - - - - ENE 17 19 9 10 - - -
 
Date/Time
WST
Temp
°C
App
Temp
°C
Dew
Point
°C
Rel
Hum
%
Delta-T
°C
Wind Press
QNH
hPa
Press
MSL
hPa
Rain since
9am
mm
Dir  Spd
km/h
Gust
km/h
Spd
kts
Gust
kts
24/11:30pm - - - - - ENE 13 17 7 9 - - -
24/11:00pm - - - - - ENE 15 19 8 10 - - -
24/10:30pm - - - - - ENE 15 17 8 9 - - -
24/10:00pm - - - - - E 13 17 7 9 - - -
24/09:30pm - - - - - ESE 13 13 7 7 - - -
24/09:00pm - - - - - SE 11 13 6 7 - - -
24/08:30pm - - - - - SE 13 15 7 8 - - -
24/08:00pm - - - - - SSE 17 20 9 11 - - -
24/07:30pm - - - - - SSE 15 17 8 9 - - -
24/07:00pm - - - - - SE 15 19 8 10 - - -
24/06:30pm - - - - - SSE 13 19 7 10 - - -
24/06:00pm - - - - - SSE 17 26 9 14 - - -
24/05:30pm - - - - - SSE 19 26 10 14 - - -
24/05:00pm - - - - - SSE 20 28 11 15 - - -
24/04:30pm - - - - - S 24 30 13 16 - - -
24/04:00pm - - - - - S 19 26 10 14 - - -
24/03:30pm - - - - - S 20 26 11 14 - - -
24/03:00pm - - - - - S 19 26 10 14 - - -
24/02:30pm - - - - - SSW 24 28 13 15 - - -
24/02:00pm - - - - - SSW 19 24 10 13 - - -
24/01:30pm - - - - - SSW 13 17 7 9 - - -
24/01:00pm - - - - - SSW 11 15 6 8 - - -
24/12:30pm - - - - - ESE 15 22 8 12 - - -
24/12:00pm - - - - - SSE 13 20 7 11 - - -
24/11:30am - - - - - ESE 13 24 7 13 - - -
24/11:00am - - - - - ESE 13 17 7 9 - - -
24/10:30am - - - - - E 13 19 7 10 - - -
24/10:00am - - - - - ENE 13 19 7 10 - - -
24/09:30am - - - - - ENE 13 17 7 9 - - -
24/09:00am - - - - - ENE 17 20 9 11 - - -
24/08:30am - - - - - ENE 15 19 8 10 - - -
24/08:00am - - - - - ENE 19 20 10 11 - - -
24/07:30am - - - - - ENE 17 19 9 10 - - -
24/07:00am - - - - - ENE 17 19 9 10 - - -
24/06:30am - - - - - ENE 15 17 8 9 - - -
24/06:00am - - - - - ENE 15 17 8 9 - - -
24/05:30am - - - - - ENE 15 17 8 9 - - -
24/05:00am - - - - - E 15 17 8 9 - - -
24/04:30am - - - - - E 15 17 8 9 - - -
24/04:00am - - - - - E 17 19 9 10 - - -
24/03:30am - - - - - E 15 19 8 10 - - -
24/03:00am - - - - - ESE 17 19 9 10 - - -
24/02:30am - - - - - ESE 15 19 8 10 - - -
24/02:00am - - - - - ESE 15 19 8 10 - - -
24/01:30am - - - - - ESE 13 19 7 10 - - -
24/01:00am - - - - - SE 13 19 7 10 - - -
24/12:30am - - - - - ESE 13 17 7 9 - - -
24/12:00am - - - - - ESE 13 17 7 9 - - -

Other Formats:

Comma delimited format used in spreadsheet applications
http://www.bom.gov.au/fwo/IDW60801/IDW60801.94607.axf

JavaScript Object Notation format (JSON) in row-major order
http://www.bom.gov.au/fwo/IDW60801/IDW60801.94607.json